Stanfield, North Carolina
Current Conditions -  °F | °C
As of 2:53 PM on Wednesday 28 Jan 2015 (Local Time) from KEQY Reporting Station
Clear Clear  
Wind Chill: 44°   Ceiling: Unl
Heat Index: 47°   Visibility: 10mi
Dew Point: 17°   Wind: 7mph
Humidity: 30%   Direction: 300°WNW
Pressure: 30.21"   Gusts: NA
Location:  35.23°N, 80.43°W
Report Text: KEQY 281953Z AUTO 30006KT 10SM CLR 08/M08 A3021 RMK AO2 SLP250 T00831083
Loading
Personal Weather Stations






























Interactive Weather Map New forecast layout! Learn more

10-Day Weather Forecast

Advertisements
Track Severe Weather on mobile